createdAt,value
2022-08-23T00:00:13.056Z,21.82
2022-08-23T00:02:43.779Z,21.78
2022-08-23T00:05:12.582Z,22.37
2022-08-23T00:07:41.744Z,22.64
2022-08-23T00:10:11.705Z,22.29
2022-08-23T00:12:40.831Z,22.29
2022-08-23T00:15:11.400Z,22.16
2022-08-23T00:17:42.248Z,22.13
2022-08-23T00:20:14.226Z,21.95
2022-08-23T00:22:43.197Z,21.62
2022-08-23T00:25:13.876Z,21.97
2022-08-23T00:27:42.510Z,22.00
2022-08-23T00:30:13.494Z,22.24
2022-08-23T00:32:43.824Z,22.46
2022-08-23T00:35:26.430Z,22.44
2022-08-23T00:38:30.412Z,22.29
2022-08-23T00:40:47.389Z,22.09
2022-08-23T00:43:45.520Z,22.17
2022-08-23T00:46:38.005Z,21.76
2022-08-23T00:49:10.368Z,21.95
2022-08-23T00:51:53.233Z,21.80
2022-08-23T00:54:23.978Z,21.39
2022-08-23T00:56:52.830Z,21.20
2022-08-23T00:59:21.101Z,21.04
2022-08-23T01:01:50.230Z,21.21
2022-08-23T01:04:19.017Z,21.51
2022-08-23T01:06:52.489Z,21.61
2022-08-23T01:09:22.302Z,21.52
2022-08-23T01:11:55.033Z,21.79
2022-08-23T01:14:27.647Z,22.00
2022-08-23T01:16:59.065Z,22.12
2022-08-23T01:19:30.428Z,22.18
2022-08-23T01:22:09.459Z,22.10
2022-08-23T01:25:07.345Z,21.66
2022-08-23T01:27:28.451Z,21.76
2022-08-23T01:29:56.712Z,21.72
2022-08-23T01:32:25.735Z,21.99
2022-08-23T01:34:54.322Z,22.03
2022-08-23T01:37:22.880Z,21.99
2022-08-23T01:39:55.415Z,22.05
2022-08-23T01:42:24.616Z,21.66
2022-08-23T01:44:52.761Z,21.55
2022-08-23T01:47:21.110Z,21.19
2022-08-23T01:49:49.601Z,21.16
2022-08-23T01:52:19.014Z,21.22
2022-08-23T01:54:47.466Z,21.27
2022-08-23T01:57:17.722Z,21.34
2022-08-23T01:59:46.080Z,21.40
2022-08-23T02:02:15.108Z,21.56
2022-08-23T02:04:43.590Z,21.46
2022-08-23T02:07:11.931Z,21.61
2022-08-23T02:09:40.246Z,21.52
2022-08-23T02:12:08.860Z,21.50
2022-08-23T02:14:42.228Z,21.71
2022-08-23T02:17:18.669Z,21.78
2022-08-23T02:19:47.112Z,21.54
2022-08-23T02:22:15.369Z,21.43
2022-08-23T02:24:45.439Z,21.36
2022-08-23T02:27:15.428Z,21.40
2022-08-23T02:29:47.334Z,21.20
2022-08-23T02:32:17.913Z,21.19
2022-08-23T02:34:51.301Z,21.10
2022-08-23T02:37:35.226Z,21.00
2022-08-23T02:40:05.049Z,21.22
2022-08-23T02:42:33.880Z,20.95
2022-08-23T02:45:04.827Z,21.00
2022-08-23T02:47:36.976Z,21.16
2022-08-23T02:50:16.141Z,21.21
2022-08-23T02:52:45.465Z,21.09
2022-08-23T02:55:13.793Z,21.19
2022-08-23T02:57:42.549Z,20.94
2022-08-23T03:00:15.773Z,20.85
2022-08-23T03:02:44.334Z,21.26
2022-08-23T03:05:13.637Z,21.42
2022-08-23T03:07:42.031Z,21.39
2022-08-23T03:10:12.084Z,21.20
2022-08-23T03:12:46.592Z,21.08
2022-08-23T03:15:16.716Z,20.86
2022-08-23T03:17:45.284Z,21.08
2022-08-23T03:20:13.997Z,21.27
2022-08-23T03:22:48.331Z,21.18
2022-08-23T03:25:23.026Z,21.27
2022-08-23T03:28:04.774Z,21.35
2022-08-23T03:30:35.875Z,21.37
2022-08-23T03:33:06.136Z,21.28
2022-08-23T03:35:34.381Z,21.25
2022-08-23T03:38:04.093Z,21.13
2022-08-23T03:40:32.373Z,21.22
2022-08-23T03:43:02.452Z,21.04
2022-08-23T03:45:31.897Z,21.28
2022-08-23T03:48:02.095Z,21.26
2022-08-23T03:50:33.199Z,21.35
2022-08-23T03:53:01.597Z,21.31
2022-08-23T03:55:29.861Z,21.44
2022-08-23T03:57:58.850Z,21.36
2022-08-23T04:00:27.360Z,21.00
2022-08-23T04:02:56.800Z,20.82
2022-08-23T04:05:28.490Z,20.95
2022-08-23T04:08:09.356Z,20.74
2022-08-23T04:10:39.414Z,20.83
2022-08-23T04:13:09.414Z,20.74
2022-08-23T04:15:37.835Z,20.36
2022-08-23T04:18:07.489Z,20.65
2022-08-23T04:20:39.274Z,20.54
2022-08-23T04:23:07.636Z,20.51
2022-08-23T04:25:46.702Z,20.61
2022-08-23T04:28:15.637Z,20.88
2022-08-23T04:30:46.968Z,20.69
2022-08-23T04:33:18.038Z,20.61
2022-08-23T04:35:49.191Z,20.80
2022-08-23T04:38:25.015Z,20.30
2022-08-23T04:41:15.155Z,20.17
2022-08-23T04:43:46.004Z,20.57
2022-08-23T04:46:16.556Z,20.16
2022-08-23T04:48:48.015Z,20.15
2022-08-23T04:51:19.686Z,19.94
2022-08-23T04:53:47.961Z,20.62
2022-08-23T04:56:34.707Z,20.64
2022-08-23T04:59:03.522Z,20.31
2022-08-23T05:01:32.851Z,20.23
2022-08-23T05:04:01.678Z,20.54
2022-08-23T05:06:32.382Z,20.43
2022-08-23T05:09:01.769Z,20.66
2022-08-23T05:11:30.906Z,20.66
2022-08-23T05:13:59.793Z,20.49
2022-08-23T05:16:28.666Z,20.48
2022-08-23T05:19:08.698Z,20.78
2022-08-23T05:21:44.823Z,20.81
2022-08-23T05:24:14.010Z,20.67
2022-08-23T05:26:44.537Z,20.45
2022-08-23T05:29:13.158Z,20.35
2022-08-23T05:31:49.968Z,20.34
2022-08-23T05:34:22.370Z,20.41
2022-08-23T05:36:58.650Z,20.42
2022-08-23T05:39:37.028Z,20.62
2022-08-23T05:42:11.986Z,20.43
2022-08-23T05:44:40.537Z,20.50
2022-08-23T05:47:13.062Z,20.33
2022-08-23T05:49:54.517Z,20.40
2022-08-23T05:52:26.351Z,20.55
2022-08-23T05:54:54.669Z,20.57
2022-08-23T05:57:55.009Z,20.11
2022-08-23T06:00:25.524Z,20.40
2022-08-23T06:03:06.865Z,20.41
2022-08-23T06:05:35.326Z,20.37
2022-08-23T06:08:05.326Z,20.49
2022-08-23T06:10:34.269Z,20.17
2022-08-23T06:13:07.572Z,20.58
2022-08-23T06:15:36.014Z,20.61
2022-08-23T06:18:05.430Z,20.77
2022-08-23T06:20:34.272Z,20.75
2022-08-23T06:23:09.561Z,20.74
2022-08-23T06:25:41.549Z,20.99
2022-08-23T06:28:13.514Z,20.95
2022-08-23T06:30:43.981Z,20.39
2022-08-23T06:33:26.953Z,20.81
2022-08-23T06:36:07.278Z,21.03
2022-08-23T06:38:55.497Z,20.99
2022-08-23T06:41:43.858Z,20.96
2022-08-23T06:44:28.863Z,21.02
2022-08-23T06:47:02.948Z,20.63
2022-08-23T06:49:31.547Z,20.85
2022-08-23T06:52:01.623Z,21.16
2022-08-23T06:55:02.392Z,21.48
2022-08-23T06:57:42.648Z,21.90
2022-08-23T07:00:41.670Z,21.78
2022-08-23T07:06:18.090Z,21.86
2022-08-23T07:08:46.767Z,21.85
2022-08-23T07:11:16.686Z,21.59
2022-08-23T07:13:45.002Z,21.88
2022-08-23T07:16:13.541Z,21.18
2022-08-23T07:18:41.879Z,22.01
2022-08-23T07:21:10.139Z,21.87
2022-08-23T07:23:43.789Z,21.05
2022-08-23T07:26:17.714Z,21.85
2022-08-23T07:28:46.685Z,22.01
2022-08-23T07:31:18.942Z,21.26
2022-08-23T07:33:48.358Z,21.91
2022-08-23T07:36:23.277Z,22.14
2022-08-23T07:38:52.351Z,21.96
2022-08-23T07:41:25.207Z,22.04
2022-08-23T07:43:55.179Z,22.46
2022-08-23T07:46:23.522Z,21.93
2022-08-23T07:48:54.988Z,21.87
2022-08-23T07:51:46.558Z,22.48
2022-08-23T07:54:16.542Z,22.56
2022-08-23T07:56:52.589Z,22.52
2022-08-23T07:59:39.756Z,22.77
2022-08-23T08:02:20.041Z,22.90
2022-08-23T08:04:48.806Z,23.55
2022-08-23T08:07:20.480Z,23.32
2022-08-23T08:09:56.764Z,23.49
2022-08-23T08:12:27.576Z,23.68
2022-08-23T08:14:58.078Z,24.13
2022-08-23T08:17:33.172Z,23.13
2022-08-23T08:20:26.908Z,24.20
2022-08-23T08:23:21.471Z,24.46
2022-08-23T08:26:09.565Z,23.89
2022-08-23T08:28:40.371Z,24.22
2022-08-23T08:31:09.455Z,24.35
2022-08-23T08:33:38.145Z,24.27
2022-08-23T08:36:07.827Z,23.57
2022-08-23T08:38:48.012Z,24.04
2022-08-23T08:41:21.296Z,24.44
2022-08-23T08:43:59.027Z,23.80
2022-08-23T08:46:35.308Z,24.49
2022-08-23T08:49:05.445Z,24.51
2022-08-23T08:51:40.459Z,24.49
2022-08-23T08:54:11.364Z,24.43
2022-08-23T08:56:49.763Z,24.77
2022-08-23T08:59:26.394Z,25.14
2022-08-23T09:01:55.514Z,25.61
2022-08-23T09:04:31.593Z,25.53
2022-08-23T09:07:11.570Z,25.38
2022-08-23T09:10:01.198Z,25.22
2022-08-23T09:12:35.744Z,25.57
2022-08-23T09:15:15.871Z,25.07
2022-08-23T09:17:50.617Z,24.40
2022-08-23T09:20:20.868Z,24.65
2022-08-23T09:22:55.006Z,25.02
2022-08-23T09:25:29.466Z,24.80
2022-08-23T09:28:05.147Z,24.93
2022-08-23T09:30:53.819Z,25.39
2022-08-23T09:33:26.254Z,25.21
2022-08-23T09:36:14.008Z,25.76
2022-08-23T09:38:51.792Z,25.41
2022-08-23T09:41:25.211Z,25.35
2022-08-23T09:43:56.729Z,26.27
2022-08-23T09:46:31.147Z,26.42
2022-08-23T09:49:01.570Z,25.60
2022-08-23T09:51:37.745Z,25.16
2022-08-23T09:54:14.361Z,26.35
2022-08-23T09:56:51.372Z,26.34
2022-08-23T09:59:33.712Z,26.07
2022-08-23T10:02:18.791Z,27.36
2022-08-23T10:04:58.458Z,27.31
2022-08-23T10:07:35.971Z,27.89
2022-08-23T10:10:20.399Z,27.34
2022-08-23T10:12:48.926Z,28.56
2022-08-23T10:15:18.475Z,27.77
2022-08-23T10:17:53.949Z,28.78
2022-08-23T10:20:38.013Z,28.86
2022-08-23T10:23:17.334Z,29.48
2022-08-23T10:25:56.190Z,29.05
2022-08-23T10:28:51.376Z,28.66
2022-08-23T10:31:33.799Z,28.88
2022-08-23T10:34:18.117Z,28.92
2022-08-23T10:36:52.881Z,28.36
2022-08-23T10:39:26.307Z,28.28
2022-08-23T10:42:02.392Z,28.05
2022-08-23T10:44:36.342Z,27.91
2022-08-23T10:47:14.087Z,27.97
2022-08-23T10:49:44.588Z,27.97
2022-08-23T10:52:19.333Z,27.74
2022-08-23T10:55:00.791Z,27.62
2022-08-23T10:57:34.586Z,27.47
2022-08-23T11:00:07.516Z,27.54
2022-08-23T11:02:43.668Z,27.44
2022-08-23T11:05:25.892Z,27.50
2022-08-23T11:08:01.204Z,26.31
2022-08-23T11:10:56.857Z,26.53
2022-08-23T11:13:35.076Z,27.06
2022-08-23T11:16:08.647Z,26.95
2022-08-23T11:18:44.432Z,25.44
2022-08-23T11:21:44.793Z,25.91
2022-08-23T11:24:51.166Z,26.52
2022-08-23T11:27:39.391Z,26.11
2022-08-23T11:30:49.857Z,26.51
2022-08-23T11:33:27.609Z,26.10
2022-08-23T11:36:16.763Z,25.06
2022-08-23T11:39:07.968Z,25.79
2022-08-23T11:41:37.560Z,25.39
2022-08-23T11:44:24.117Z,25.91
2022-08-23T11:47:00.447Z,25.71
2022-08-23T11:49:58.709Z,25.88
2022-08-23T11:52:36.357Z,25.87
2022-08-23T11:55:25.360Z,25.90
2022-08-23T11:58:14.005Z,25.61
2022-08-23T12:01:07.667Z,25.59
2022-08-23T12:03:55.955Z,26.15
2022-08-23T12:06:40.598Z,25.71
2022-08-23T12:09:14.190Z,25.01
2022-08-23T12:12:12.507Z,25.06
2022-08-23T12:14:51.697Z,25.25
2022-08-23T12:17:54.147Z,25.17
2022-08-23T12:20:29.993Z,25.81
2022-08-23T12:23:03.841Z,24.97
2022-08-23T12:25:33.743Z,25.53
2022-08-23T12:28:08.964Z,25.49
2022-08-23T12:30:44.231Z,25.24
2022-08-23T12:33:26.613Z,25.25
2022-08-23T12:36:02.063Z,25.53
2022-08-23T12:38:37.725Z,25.86
2022-08-23T12:41:18.317Z,25.81
2022-08-23T12:44:03.203Z,25.76
2022-08-23T12:46:35.676Z,25.45
2022-08-23T12:49:05.603Z,25.45
2022-08-23T12:51:33.848Z,25.86
2022-08-23T12:54:14.082Z,25.63
2022-08-23T12:56:47.151Z,24.63
2022-08-23T12:59:32.382Z,24.83
2022-08-23T13:02:01.599Z,24.84
2022-08-23T13:04:30.341Z,25.22
2022-08-23T13:07:00.480Z,25.09
2022-08-23T13:09:31.461Z,25.37
2022-08-23T13:11:59.945Z,25.07
2022-08-23T13:14:37.254Z,25.69
2022-08-23T13:17:23.924Z,25.48
2022-08-23T13:19:53.575Z,25.88
2022-08-23T13:22:24.592Z,25.12
2022-08-23T13:27:57.368Z,25.31
2022-08-23T13:30:29.750Z,26.04
2022-08-23T13:33:19.459Z,26.35
2022-08-23T13:35:49.151Z,26.63
2022-08-23T13:38:25.330Z,27.36
2022-08-23T13:40:58.159Z,27.19
2022-08-23T13:43:29.555Z,26.87
2022-08-23T13:46:01.461Z,26.30
2022-08-23T13:48:32.055Z,26.61
2022-08-23T13:51:18.888Z,26.78
2022-08-23T13:53:47.063Z,26.69
2022-08-23T13:56:15.889Z,27.11
2022-08-23T13:58:44.383Z,27.44
2022-08-23T14:01:18.595Z,28.28
2022-08-23T14:03:47.492Z,27.64
2022-08-23T14:06:15.955Z,27.08
2022-08-23T14:08:44.201Z,27.27
2022-08-23T14:11:14.434Z,26.60
2022-08-23T14:13:44.972Z,26.49
2022-08-23T14:16:33.996Z,26.45
2022-08-23T14:19:55.154Z,25.96
2022-08-23T14:21:52.161Z,26.62
2022-08-23T14:24:22.388Z,25.69
2022-08-23T14:26:52.441Z,26.61
2022-08-23T14:29:22.433Z,26.57
2022-08-23T14:31:53.149Z,25.88
2022-08-23T14:34:22.078Z,26.14
2022-08-23T14:39:39.841Z,25.77
2022-08-23T14:42:08.467Z,25.63
2022-08-23T14:44:36.740Z,26.29
2022-08-23T14:47:07.236Z,26.04
2022-08-23T14:49:36.134Z,26.00
2022-08-23T14:52:04.927Z,25.59
2022-08-23T14:54:34.038Z,26.32
2022-08-23T14:57:02.238Z,25.74
2022-08-23T14:59:30.486Z,26.42
2022-08-23T15:01:59.137Z,25.48
2022-08-23T15:04:34.572Z,26.11
2022-08-23T15:07:17.752Z,26.57
2022-08-23T15:09:46.860Z,26.00
2022-08-23T15:15:03.654Z,26.20
2022-08-23T15:17:31.999Z,26.15
2022-08-23T15:20:01.641Z,26.12
2022-08-23T15:22:29.990Z,26.03
2022-08-23T15:24:58.764Z,26.01
2022-08-23T15:27:27.021Z,25.92
2022-08-23T15:29:55.194Z,25.97
2022-08-23T15:32:23.439Z,26.23
2022-08-23T15:34:52.132Z,26.13
2022-08-23T15:37:22.740Z,25.86
2022-08-23T15:39:51.585Z,26.05
2022-08-23T15:42:20.413Z,25.99
2022-08-23T15:44:49.226Z,25.78
2022-08-23T15:47:21.417Z,25.90
2022-08-23T15:49:49.937Z,25.83
2022-08-23T15:52:18.442Z,26.47
2022-08-23T15:54:48.256Z,25.68
2022-08-23T15:57:18.128Z,25.49
2022-08-23T15:59:46.493Z,26.22
2022-08-23T16:02:14.865Z,26.60
2022-08-23T16:04:43.283Z,26.31
2022-08-23T16:07:15.935Z,26.41
2022-08-23T16:09:44.769Z,26.25
2022-08-23T16:12:14.342Z,26.01
2022-08-23T16:14:42.686Z,25.66
2022-08-23T16:17:11.007Z,26.53
2022-08-23T16:19:39.223Z,25.97
2022-08-23T16:22:07.473Z,26.59
2022-08-23T16:24:35.683Z,26.83
2022-08-23T16:27:05.491Z,26.47
2022-08-23T16:29:36.246Z,26.64
2022-08-23T16:32:05.233Z,26.37
2022-08-23T16:34:33.909Z,26.36
2022-08-23T16:37:04.326Z,26.02
2022-08-23T16:39:34.436Z,26.30
2022-08-23T16:42:04.688Z,26.24
2022-08-23T16:44:34.918Z,26.14
2022-08-23T16:47:03.183Z,26.09
2022-08-23T16:49:33.601Z,26.03
2022-08-23T16:52:02.288Z,26.32
2022-08-23T16:54:30.594Z,26.00
2022-08-23T16:56:58.835Z,25.82
2022-08-23T16:59:27.094Z,26.20
2022-08-23T17:01:58.630Z,26.47
2022-08-23T17:04:30.755Z,26.30
2022-08-23T17:06:59.671Z,25.74
2022-08-23T17:09:29.611Z,26.26
2022-08-23T17:11:59.316Z,26.03
2022-08-23T17:14:28.357Z,25.81
2022-08-23T17:16:58.038Z,25.71
2022-08-23T17:19:26.281Z,26.11
2022-08-23T17:21:54.589Z,25.71
2022-08-23T17:24:24.478Z,25.57
2022-08-23T17:26:52.755Z,25.90
2022-08-23T17:29:21.071Z,25.79
2022-08-23T17:31:49.450Z,26.30
2022-08-23T17:34:19.220Z,26.37
2022-08-23T17:36:48.995Z,26.07
2022-08-23T17:39:20.717Z,26.11
2022-08-23T17:41:50.684Z,25.93
2022-08-23T17:44:20.356Z,25.65
2022-08-23T17:46:49.207Z,25.86
2022-08-23T17:49:19.455Z,26.10
2022-08-23T17:51:47.921Z,25.96
2022-08-23T17:54:16.746Z,25.57
2022-08-23T17:56:48.486Z,25.60
2022-08-23T17:59:19.576Z,25.76
2022-08-23T18:01:48.007Z,25.81
2022-08-23T18:04:16.293Z,25.85
2022-08-23T18:06:45.963Z,26.17
2022-08-23T18:09:14.589Z,26.08
2022-08-23T18:11:43.063Z,26.03
2022-08-23T18:14:12.538Z,25.46
2022-08-23T18:16:41.313Z,25.66
2022-08-23T18:19:13.123Z,25.87
2022-08-23T18:21:43.864Z,25.55
2022-08-23T18:24:14.600Z,25.60
2022-08-23T18:27:01.204Z,25.87
2022-08-23T18:29:30.600Z,25.67
2022-08-23T18:31:59.170Z,25.63
2022-08-23T18:34:28.178Z,25.77
2022-08-23T18:36:56.755Z,25.86
2022-08-23T18:39:31.870Z,25.76
2022-08-23T18:42:01.446Z,25.80
2022-08-23T18:44:30.117Z,25.94
2022-08-23T18:46:59.226Z,25.82
2022-08-23T18:49:27.565Z,25.88
2022-08-23T18:51:56.525Z,25.48
2022-08-23T18:54:28.092Z,25.49
2022-08-23T18:56:59.184Z,25.19
2022-08-23T18:59:29.234Z,25.46
2022-08-23T19:01:59.039Z,25.56
2022-08-23T19:04:28.036Z,25.34
2022-08-23T19:06:56.973Z,25.24
2022-08-23T19:09:26.952Z,25.48
2022-08-23T19:11:57.428Z,25.49
2022-08-23T19:14:26.291Z,25.50
2022-08-23T19:16:55.825Z,25.45
2022-08-23T19:19:25.283Z,25.34
2022-08-23T19:21:54.271Z,25.57
2022-08-23T19:24:26.925Z,25.41
2022-08-23T19:26:57.108Z,25.26
2022-08-23T19:29:26.501Z,25.15
2022-08-23T19:31:55.542Z,25.06
2022-08-23T19:34:24.213Z,25.01
2022-08-23T19:37:00.866Z,24.97
2022-08-23T19:39:31.014Z,24.96
2022-08-23T19:42:01.010Z,25.10
2022-08-23T19:44:33.012Z,25.08
2022-08-23T19:47:01.968Z,25.25
2022-08-23T19:49:31.540Z,25.60
2022-08-23T19:52:00.124Z,25.39
2022-08-23T19:54:28.835Z,25.16
2022-08-23T19:56:59.230Z,24.93
2022-08-23T19:59:31.701Z,25.19
2022-08-23T20:02:00.894Z,25.09
2022-08-23T20:04:31.306Z,25.06
2022-08-23T20:07:01.377Z,24.59
2022-08-23T20:09:31.062Z,24.68
2022-08-23T20:12:00.436Z,24.81
2022-08-23T20:14:33.476Z,24.73
2022-08-23T20:17:04.862Z,24.64
2022-08-23T20:19:33.410Z,24.68
2022-08-23T20:22:16.298Z,24.65
2022-08-23T20:24:51.536Z,24.56
2022-08-23T20:27:27.784Z,24.55
2022-08-23T20:30:01.824Z,24.55
2022-08-23T20:32:31.472Z,24.60
2022-08-23T20:35:00.730Z,24.39
2022-08-23T20:37:30.040Z,24.25
2022-08-23T20:39:58.502Z,24.03
2022-08-23T20:42:27.295Z,24.06
2022-08-23T20:44:55.825Z,24.11
2022-08-23T20:47:25.497Z,23.98
2022-08-23T20:49:53.812Z,23.95
2022-08-23T20:52:22.073Z,24.15
2022-08-23T20:54:50.365Z,24.33
2022-08-23T20:57:18.811Z,24.24
2022-08-23T20:59:47.082Z,24.05
2022-08-23T21:02:15.496Z,23.92
2022-08-23T21:04:45.779Z,24.00
2022-08-23T21:07:16.106Z,23.98
2022-08-23T21:09:44.849Z,24.13
2022-08-23T21:12:13.644Z,24.14
2022-08-23T21:14:41.834Z,24.11
2022-08-23T21:17:10.084Z,23.84
2022-08-23T21:19:38.919Z,23.96
2022-08-23T21:22:08.654Z,23.64
2022-08-23T21:24:38.193Z,23.61
2022-08-23T21:27:09.524Z,23.49
2022-08-23T21:29:38.687Z,23.92
2022-08-23T21:32:07.653Z,23.73
2022-08-23T21:34:35.857Z,23.51
2022-08-23T21:37:04.053Z,23.63
2022-08-23T21:39:33.618Z,23.48
2022-08-23T21:42:01.849Z,23.61
2022-08-23T21:44:42.421Z,23.41
2022-08-23T21:47:10.710Z,23.41
2022-08-23T21:49:39.089Z,23.02
2022-08-23T21:52:08.161Z,23.51
2022-08-23T21:54:42.807Z,23.64
2022-08-23T21:57:11.735Z,23.66
2022-08-23T21:59:39.953Z,23.64
2022-08-23T22:02:08.231Z,23.29
2022-08-23T22:04:36.578Z,23.21
2022-08-23T22:07:04.892Z,23.00
2022-08-23T22:09:33.388Z,23.32
2022-08-23T22:12:03.126Z,23.62
2022-08-23T22:14:32.056Z,23.33
2022-08-23T22:17:00.637Z,22.88
2022-08-23T22:19:29.186Z,23.18
2022-08-23T22:21:57.574Z,23.28
2022-08-23T22:24:26.489Z,23.15
2022-08-23T22:26:55.240Z,22.62
2022-08-23T22:29:25.231Z,22.73
2022-08-23T22:31:54.146Z,23.10
2022-08-23T22:34:22.418Z,22.90
2022-08-23T22:36:52.642Z,22.57
2022-08-23T22:39:22.026Z,22.35
2022-08-23T22:41:50.852Z,22.27
2022-08-23T22:44:19.148Z,21.97
2022-08-23T22:46:48.789Z,22.12
2022-08-23T22:49:17.281Z,22.06
2022-08-23T22:54:23.122Z,21.75
2022-08-23T22:56:52.286Z,21.78
2022-08-23T22:59:25.851Z,21.67
2022-08-23T23:01:58.623Z,21.59
2022-08-23T23:04:27.535Z,21.23
2022-08-23T23:06:56.607Z,21.24
2022-08-23T23:09:25.198Z,21.22
2022-08-23T23:11:54.480Z,21.19
2022-08-23T23:14:23.175Z,21.21
2022-08-23T23:16:53.271Z,21.25
2022-08-23T23:19:40.321Z,21.20
2022-08-23T23:22:09.901Z,21.16
2022-08-23T23:24:39.775Z,21.05
2022-08-23T23:27:08.757Z,21.18
2022-08-23T23:29:38.518Z,21.06
2022-08-23T23:32:07.204Z,20.77
2022-08-23T23:34:38.060Z,20.89
2022-08-23T23:37:06.650Z,20.80
2022-08-23T23:39:34.904Z,20.78
2022-08-23T23:42:03.145Z,20.85
2022-08-23T23:44:32.110Z,20.70
2022-08-23T23:47:01.393Z,20.78
2022-08-23T23:49:32.496Z,20.93
2022-08-23T23:52:04.880Z,20.66
2022-08-23T23:54:35.567Z,20.80
2022-08-23T23:57:04.051Z,20.75
2022-08-23T23:59:32.597Z,20.68
